Malvern, Ohio
Current Conditions -  °F | °C
As of 11:20 AM on Saturday 22 Nov 2014 (Local Time) from KPHD Reporting Station
Light Rain Light Rain  
Wind Chill: 29°   Ceiling: 3300
Heat Index: 33°   Visibility: 6mi
Dew Point: 30°   Wind: 5mph
Humidity: 89%   Direction: 140°SE
Pressure: 30.26"   Gusts: NA
Location:  40.69°N, 81.18°W
Report Text: KPHD 221620Z AUTO 14004KT 6SM -RA BR FEW011 BKN033 OVC060 01/M01 A3026 RMK AO2 UPE01RAB01E02B18 P0000 T00061011
Loading
Personal Weather Stations






























Interactive Weather Map New forecast layout! Learn more

10-Day Weather Forecast

Advertisements
Track Severe Weather on mobile